sensor_id;sensor_type;location;lat;lon;timestamp;pressure;altitude;pressure_sealevel;temperature;humidity
36454;BME280;22478;51.740;-1.314;2023-03-08T00:01:21;98476.15;;;-2.22;100.00
36454;BME280;22478;51.740;-1.314;2023-03-08T00:03:51;98473.39;;;-2.15;100.00
36454;BME280;22478;51.740;-1.314;2023-03-08T00:06:18;98468.89;;;-1.73;100.00
36454;BME280;22478;51.740;-1.314;2023-03-08T00:08:46;98468.40;;;-2.29;100.00
36454;BME280;22478;51.740;-1.314;2023-03-08T00:11:14;98463.95;;;-2.28;100.00
36454;BME280;22478;51.740;-1.314;2023-03-08T00:13:42;98463.13;;;-1.67;100.00
36454;BME280;22478;51.740;-1.314;2023-03-08T00:16:10;98457.61;;;-1.86;100.00
36454;BME280;22478;51.740;-1.314;2023-03-08T00:18:38;98453.74;;;-0.98;100.00
36454;BME280;22478;51.740;-1.314;2023-03-08T00:21:08;98449.14;;;-0.55;100.00
36454;BME280;22478;51.740;-1.314;2023-03-08T00:23:35;98446.95;;;-0.69;100.00
36454;BME280;22478;51.740;-1.314;2023-03-08T00:26:04;98446.43;;;-1.14;100.00
36454;BME280;22478;51.740;-1.314;2023-03-08T00:28:32;98440.16;;;-0.92;100.00
36454;BME280;22478;51.740;-1.314;2023-03-08T00:31:01;98438.69;;;-1.41;100.00
36454;BME280;22478;51.740;-1.314;2023-03-08T00:33:29;98433.15;;;-1.57;100.00
36454;BME280;22478;51.740;-1.314;2023-03-08T00:35:57;98423.49;;;-1.63;100.00
36454;BME280;22478;51.740;-1.314;2023-03-08T00:38:25;98418.20;;;-1.50;100.00
36454;BME280;22478;51.740;-1.314;2023-03-08T00:40:54;98410.99;;;-0.46;100.00
36454;BME280;22478;51.740;-1.314;2023-03-08T00:43:21;98409.74;;;-0.54;100.00
36454;BME280;22478;51.740;-1.314;2023-03-08T00:45:48;98404.74;;;-0.34;100.00
36454;BME280;22478;51.740;-1.314;2023-03-08T00:48:15;98398.04;;;-0.82;100.00
36454;BME280;22478;51.740;-1.314;2023-03-08T00:50:44;98390.73;;;-0.21;100.00
36454;BME280;22478;51.740;-1.314;2023-03-08T00:53:11;98390.66;;;0.04;98.64
36454;BME280;22478;51.740;-1.314;2023-03-08T00:55:38;98395.76;;;-1.42;100.00
36454;BME280;22478;51.740;-1.314;2023-03-08T00:58:06;98391.85;;;-0.24;98.97
36454;BME280;22478;51.740;-1.314;2023-03-08T01:00:32;98385.91;;;0.13;96.29
36454;BME280;22478;51.740;-1.314;2023-03-08T01:03:00;98377.03;;;-0.75;96.25
36454;BME280;22478;51.740;-1.314;2023-03-08T01:05:27;98364.04;;;0.24;93.17
36454;BME280;22478;51.740;-1.314;2023-03-08T01:07:54;98358.33;;;-2.46;100.00
36454;BME280;22478;51.740;-1.314;2023-03-08T01:10:22;98345.53;;;-0.69;100.00
36454;BME280;22478;51.740;-1.314;2023-03-08T01:12:49;98354.25;;;-5.37;100.00
36454;BME280;22478;51.740;-1.314;2023-03-08T01:15:16;98349.53;;;-5.40;100.00
36454;BME280;22478;51.740;-1.314;2023-03-08T01:17:44;98338.45;;;-4.24;100.00
36454;BME280;22478;51.740;-1.314;2023-03-08T01:20:12;98332.20;;;-5.53;100.00
36454;BME280;22478;51.740;-1.314;2023-03-08T01:22:39;98326.43;;;-6.28;100.00
36454;BME280;22478;51.740;-1.314;2023-03-08T01:25:08;98327.75;;;-4.53;100.00
36454;BME280;22478;51.740;-1.314;2023-03-08T01:27:35;98333.27;;;-4.24;100.00
36454;BME280;22478;51.740;-1.314;2023-03-08T01:30:03;98328.25;;;-5.36;100.00
36454;BME280;22478;51.740;-1.314;2023-03-08T01:32:30;98324.89;;;-6.78;100.00
36454;BME280;22478;51.740;-1.314;2023-03-08T01:34:57;98316.99;;;-4.06;100.00
36454;BME280;22478;51.740;-1.314;2023-03-08T01:37:24;98316.87;;;-6.29;100.00
36454;BME280;22478;51.740;-1.314;2023-03-08T01:39:51;98311.99;;;-7.15;100.00
36454;BME280;22478;51.740;-1.314;2023-03-08T01:42:18;98303.82;;;-6.88;100.00
36454;BME280;22478;51.740;-1.314;2023-03-08T01:44:51;98304.98;;;-5.94;100.00
36454;BME280;22478;51.740;-1.314;2023-03-08T01:47:20;98307.60;;;-5.03;100.00
36454;BME280;22478;51.740;-1.314;2023-03-08T01:49:48;98308.35;;;-5.98;100.00
36454;BME280;22478;51.740;-1.314;2023-03-08T01:52:18;98307.05;;;-5.96;100.00
36454;BME280;22478;51.740;-1.314;2023-03-08T01:54:49;98297.70;;;-6.10;100.00
36454;BME280;22478;51.740;-1.314;2023-03-08T01:57:21;98296.18;;;-6.69;100.00
36454;BME280;22478;51.740;-1.314;2023-03-08T01:59:50;98285.80;;;-6.54;100.00
36454;BME280;22478;51.740;-1.314;2023-03-08T02:02:22;98270.34;;;-4.46;100.00
36454;BME280;22478;51.740;-1.314;2023-03-08T02:04:51;98266.50;;;-5.56;100.00
36454;BME280;22478;51.740;-1.314;2023-03-08T02:07:18;98264.35;;;-7.23;100.00
36454;BME280;22478;51.740;-1.314;2023-03-08T02:09:45;98246.77;;;-3.41;100.00
36454;BME280;22478;51.740;-1.314;2023-03-08T02:12:13;98252.90;;;-4.51;100.00
36454;BME280;22478;51.740;-1.314;2023-03-08T02:14:42;98241.94;;;-3.36;100.00
36454;BME280;22478;51.740;-1.314;2023-03-08T02:17:10;98244.18;;;-5.38;100.00
36454;BME280;22478;51.740;-1.314;2023-03-08T02:19:42;98233.04;;;-4.04;100.00
36454;BME280;22478;51.740;-1.314;2023-03-08T02:22:13;98221.20;;;-3.38;100.00
36454;BME280;22478;51.740;-1.314;2023-03-08T02:24:41;98216.86;;;-3.61;100.00
36454;BME280;22478;51.740;-1.314;2023-03-08T02:27:17;98221.02;;;-5.40;100.00
36454;BME280;22478;51.740;-1.314;2023-03-08T02:29:46;98214.59;;;-6.34;100.00
36454;BME280;22478;51.740;-1.314;2023-03-08T02:32:13;98211.36;;;-5.76;100.00
36454;BME280;22478;51.740;-1.314;2023-03-08T02:34:41;98206.42;;;-5.72;100.00
36454;BME280;22478;51.740;-1.314;2023-03-08T02:37:09;98190.76;;;-4.19;100.00
36454;BME280;22478;51.740;-1.314;2023-03-08T02:39:36;98180.10;;;-1.84;100.00
36454;BME280;22478;51.740;-1.314;2023-03-08T02:42:03;98190.14;;;-6.58;100.00
36454;BME280;22478;51.740;-1.314;2023-03-08T02:44:30;98189.43;;;-6.69;100.00
36454;BME280;22478;51.740;-1.314;2023-03-08T02:46:57;98183.06;;;-5.91;100.00
36454;BME280;22478;51.740;-1.314;2023-03-08T02:49:24;98166.36;;;-3.36;100.00
36454;BME280;22478;51.740;-1.314;2023-03-08T02:51:52;98171.45;;;-7.02;100.00
36454;BME280;22478;51.740;-1.314;2023-03-08T02:54:19;98165.53;;;-5.68;100.00
36454;BME280;22478;51.740;-1.314;2023-03-08T02:56:46;98153.45;;;-5.06;100.00
36454;BME280;22478;51.740;-1.314;2023-03-08T02:59:13;98146.20;;;-3.34;100.00
36454;BME280;22478;51.740;-1.314;2023-03-08T03:01:40;98148.98;;;-5.98;100.00
36454;BME280;22478;51.740;-1.314;2023-03-08T03:04:08;98143.72;;;-6.65;100.00
36454;BME280;22478;51.740;-1.314;2023-03-08T03:06:35;98132.61;;;-6.39;100.00
36454;BME280;22478;51.740;-1.314;2023-03-08T03:09:05;98131.88;;;-8.22;100.00
36454;BME280;22478;51.740;-1.314;2023-03-08T03:11:32;98124.48;;;-5.64;100.00
36454;BME280;22478;51.740;-1.314;2023-03-08T03:14:00;98116.57;;;-4.96;100.00
36454;BME280;22478;51.740;-1.314;2023-03-08T03:16:28;98118.43;;;-6.14;100.00
36454;BME280;22478;51.740;-1.314;2023-03-08T03:18:55;98109.26;;;-4.52;100.00
36454;BME280;22478;51.740;-1.314;2023-03-08T03:21:23;98108.44;;;-4.64;100.00
36454;BME280;22478;51.740;-1.314;2023-03-08T03:23:53;98096.32;;;-5.07;100.00
36454;BME280;22478;51.740;-1.314;2023-03-08T03:26:22;98097.76;;;-7.55;100.00
36454;BME280;22478;51.740;-1.314;2023-03-08T03:28:50;98093.68;;;-8.03;100.00
36454;BME280;22478;51.740;-1.314;2023-03-08T03:31:19;98092.45;;;-6.74;100.00
36454;BME280;22478;51.740;-1.314;2023-03-08T03:33:48;98095.37;;;-7.36;100.00
36454;BME280;22478;51.740;-1.314;2023-03-08T03:36:18;98093.53;;;-5.86;100.00
36454;BME280;22478;51.740;-1.314;2023-03-08T03:38:46;98091.24;;;-6.42;100.00
36454;BME280;22478;51.740;-1.314;2023-03-08T03:41:15;98082.72;;;-5.43;100.00
36454;BME280;22478;51.740;-1.314;2023-03-08T03:43:43;98078.15;;;-4.82;100.00
36454;BME280;22478;51.740;-1.314;2023-03-08T03:46:12;98078.60;;;-5.42;100.00
36454;BME280;22478;51.740;-1.314;2023-03-08T03:48:40;98079.79;;;-6.41;100.00
36454;BME280;22478;51.740;-1.314;2023-03-08T03:51:09;98083.04;;;-6.64;100.00
36454;BME280;22478;51.740;-1.314;2023-03-08T03:53:37;98078.82;;;-7.07;100.00
36454;BME280;22478;51.740;-1.314;2023-03-08T03:56:06;98078.02;;;-6.45;100.00
36454;BME280;22478;51.740;-1.314;2023-03-08T03:58:34;98077.07;;;-6.07;100.00
36454;BME280;22478;51.740;-1.314;2023-03-08T04:01:06;98073.76;;;-6.57;100.00
36454;BME280;22478;51.740;-1.314;2023-03-08T04:03:34;98062.08;;;-6.49;100.00
36454;BME280;22478;51.740;-1.314;2023-03-08T04:06:05;98065.97;;;-7.28;100.00
36454;BME280;22478;51.740;-1.314;2023-03-08T04:08:33;98068.43;;;-7.79;100.00
36454;BME280;22478;51.740;-1.314;2023-03-08T04:11:00;98059.92;;;-7.68;100.00
36454;BME280;22478;51.740;-1.314;2023-03-08T04:13:27;98056.00;;;-7.90;100.00
36454;BME280;22478;51.740;-1.314;2023-03-08T04:15:55;98050.77;;;-7.65;100.00
36454;BME280;22478;51.740;-1.314;2023-03-08T04:18:22;98044.37;;;-6.77;100.00
36454;BME280;22478;51.740;-1.314;2023-03-08T04:20:49;98049.92;;;-7.92;100.00
36454;BME280;22478;51.740;-1.314;2023-03-08T04:23:16;98051.78;;;-8.66;100.00
36454;BME280;22478;51.740;-1.314;2023-03-08T04:25:46;98041.14;;;-7.34;100.00
36454;BME280;22478;51.740;-1.314;2023-03-08T04:28:13;98043.30;;;-7.38;100.00
36454;BME280;22478;51.740;-1.314;2023-03-08T04:30:41;98040.68;;;-6.79;100.00
36454;BME280;22478;51.740;-1.314;2023-03-08T04:33:08;98044.88;;;-7.38;100.00
36454;BME280;22478;51.740;-1.314;2023-03-08T04:35:36;98037.78;;;-7.91;100.00
36454;BME280;22478;51.740;-1.314;2023-03-08T04:38:03;98039.79;;;-8.43;100.00
36454;BME280;22478;51.740;-1.314;2023-03-08T04:40:31;98036.56;;;-7.54;100.00
36454;BME280;22478;51.740;-1.314;2023-03-08T04:42:58;98030.28;;;-7.63;100.00
36454;BME280;22478;51.740;-1.314;2023-03-08T04:45:25;98040.40;;;-7.71;100.00
36454;BME280;22478;51.740;-1.314;2023-03-08T04:47:52;98034.85;;;-7.12;100.00
36454;BME280;22478;51.740;-1.314;2023-03-08T04:50:20;98028.65;;;-7.44;100.00
36454;BME280;22478;51.740;-1.314;2023-03-08T04:52:46;98023.58;;;-7.20;100.00
36454;BME280;22478;51.740;-1.314;2023-03-08T04:55:14;98023.03;;;-8.00;100.00
36454;BME280;22478;51.740;-1.314;2023-03-08T04:57:42;98017.61;;;-7.49;100.00
36454;BME280;22478;51.740;-1.314;2023-03-08T05:00:10;98020.59;;;-7.77;100.00
36454;BME280;22478;51.740;-1.314;2023-03-08T05:02:38;98012.30;;;-7.73;100.00
36454;BME280;22478;51.740;-1.314;2023-03-08T05:05:06;98002.45;;;-7.63;100.00
36454;BME280;22478;51.740;-1.314;2023-03-08T05:07:33;98000.73;;;-8.35;100.00
36454;BME280;22478;51.740;-1.314;2023-03-08T05:10:01;97994.13;;;-7.51;100.00
36454;BME280;22478;51.740;-1.314;2023-03-08T05:12:28;97993.70;;;-8.37;100.00
36454;BME280;22478;51.740;-1.314;2023-03-08T05:14:56;97994.76;;;-8.23;100.00
36454;BME280;22478;51.740;-1.314;2023-03-08T05:17:23;97982.24;;;-6.54;100.00
36454;BME280;22478;51.740;-1.314;2023-03-08T05:19:50;97983.81;;;-7.99;100.00
36454;BME280;22478;51.740;-1.314;2023-03-08T05:22:18;97981.18;;;-8.35;100.00
36454;BME280;22478;51.740;-1.314;2023-03-08T05:24:45;97974.81;;;-9.13;100.00
36454;BME280;22478;51.740;-1.314;2023-03-08T05:27:12;97965.86;;;-8.88;100.00
36454;BME280;22478;51.740;-1.314;2023-03-08T05:29:40;97956.68;;;-7.25;100.00
36454;BME280;22478;51.740;-1.314;2023-03-08T05:32:09;97951.35;;;-8.05;100.00
36454;BME280;22478;51.740;-1.314;2023-03-08T05:34:37;97949.58;;;-8.45;100.00
36454;BME280;22478;51.740;-1.314;2023-03-08T05:37:04;97945.51;;;-7.25;100.00
36454;BME280;22478;51.740;-1.314;2023-03-08T05:39:31;97940.19;;;-7.18;100.00
36454;BME280;22478;51.740;-1.314;2023-03-08T05:41:58;97939.13;;;-8.17;100.00
36454;BME280;22478;51.740;-1.314;2023-03-08T05:44:25;97937.63;;;-8.65;100.00
36454;BME280;22478;51.740;-1.314;2023-03-08T05:46:53;97931.40;;;-7.65;100.00
36454;BME280;22478;51.740;-1.314;2023-03-08T05:49:20;97926.62;;;-9.09;100.00
36454;BME280;22478;51.740;-1.314;2023-03-08T05:51:47;97925.41;;;-8.07;100.00
36454;BME280;22478;51.740;-1.314;2023-03-08T05:54:14;97923.38;;;-8.17;100.00
36454;BME280;22478;51.740;-1.314;2023-03-08T05:56:41;97922.97;;;-8.68;100.00
36454;BME280;22478;51.740;-1.314;2023-03-08T05:59:08;97910.58;;;-8.16;100.00
36454;BME280;22478;51.740;-1.314;2023-03-08T06:01:36;97910.17;;;-8.11;100.00
36454;BME280;22478;51.740;-1.314;2023-03-08T06:04:03;97908.61;;;-9.08;100.00
36454;BME280;22478;51.740;-1.314;2023-03-08T06:06:31;97898.05;;;-8.14;100.00
36454;BME280;22478;51.740;-1.314;2023-03-08T06:08:58;97890.27;;;-7.73;100.00
36454;BME280;22478;51.740;-1.314;2023-03-08T06:11:25;97894.82;;;-7.10;100.00
36454;BME280;22478;51.740;-1.314;2023-03-08T06:13:53;97906.75;;;-9.41;100.00
36454;BME280;22478;51.740;-1.314;2023-03-08T06:16:20;97908.00;;;-8.64;100.00
36454;BME280;22478;51.740;-1.314;2023-03-08T06:18:47;97904.18;;;-7.48;100.00
36454;BME280;22478;51.740;-1.314;2023-03-08T06:21:16;97898.33;;;-6.60;100.00
36454;BME280;22478;51.740;-1.314;2023-03-08T06:23:44;97907.49;;;-8.25;100.00
36454;BME280;22478;51.740;-1.314;2023-03-08T06:26:12;97903.77;;;-7.60;100.00
36454;BME280;22478;51.740;-1.314;2023-03-08T06:28:40;97911.06;;;-8.91;100.00
36454;BME280;22478;51.740;-1.314;2023-03-08T06:31:11;97925.15;;;-9.33;100.00
36454;BME280;22478;51.740;-1.314;2023-03-08T06:33:39;97921.79;;;-8.77;100.00
36454;BME280;22478;51.740;-1.314;2023-03-08T06:36:08;97933.31;;;-8.93;100.00
36454;BME280;22478;51.740;-1.314;2023-03-08T06:38:38;97927.72;;;-7.71;100.00
36454;BME280;22478;51.740;-1.314;2023-03-08T06:41:06;97940.42;;;-7.86;100.00
36454;BME280;22478;51.740;-1.314;2023-03-08T06:43:34;97933.57;;;-8.03;100.00
36454;BME280;22478;51.740;-1.314;2023-03-08T06:46:03;97917.12;;;-7.17;100.00
36454;BME280;22478;51.740;-1.314;2023-03-08T06:48:30;97911.95;;;-8.36;100.00
36454;BME280;22478;51.740;-1.314;2023-03-08T06:50:58;97913.23;;;-8.82;100.00
36454;BME280;22478;51.740;-1.314;2023-03-08T06:53:25;97905.49;;;-8.56;100.00
36454;BME280;22478;51.740;-1.314;2023-03-08T06:55:53;97900.32;;;-7.86;100.00
36454;BME280;22478;51.740;-1.314;2023-03-08T06:58:20;97903.70;;;-7.95;100.00
36454;BME280;22478;51.740;-1.314;2023-03-08T07:00:47;97899.78;;;-8.45;100.00
36454;BME280;22478;51.740;-1.314;2023-03-08T07:03:14;97894.80;;;-8.51;100.00
36454;BME280;22478;51.740;-1.314;2023-03-08T07:05:42;97883.85;;;-8.66;100.00
36454;BME280;22478;51.740;-1.314;2023-03-08T07:08:09;97891.01;;;-8.18;100.00
36454;BME280;22478;51.740;-1.314;2023-03-08T07:10:37;97897.61;;;-8.11;100.00
36454;BME280;22478;51.740;-1.314;2023-03-08T07:13:04;97910.17;;;-7.88;100.00
36454;BME280;22478;51.740;-1.314;2023-03-08T07:15:32;97914.03;;;-8.51;100.00
36454;BME280;22478;51.740;-1.314;2023-03-08T07:18:00;97914.07;;;-7.46;100.00
36454;BME280;22478;51.740;-1.314;2023-03-08T07:20:27;97912.69;;;-7.46;100.00
36454;BME280;22478;51.740;-1.314;2023-03-08T07:22:54;97912.63;;;-8.78;100.00
36454;BME280;22478;51.740;-1.314;2023-03-08T07:25:21;97918.68;;;-7.55;100.00
36454;BME280;22478;51.740;-1.314;2023-03-08T07:27:48;97916.39;;;-7.80;100.00
36454;BME280;22478;51.740;-1.314;2023-03-08T07:30:16;97909.16;;;-8.54;100.00
36454;BME280;22478;51.740;-1.314;2023-03-08T07:32:43;97898.57;;;-7.04;100.00
36454;BME280;22478;51.740;-1.314;2023-03-08T07:35:13;97896.26;;;-8.06;100.00
36454;BME280;22478;51.740;-1.314;2023-03-08T07:37:43;97901.69;;;-8.67;100.00
36454;BME280;22478;51.740;-1.314;2023-03-08T07:40:12;97900.87;;;-8.72;100.00
36454;BME280;22478;51.740;-1.314;2023-03-08T07:42:40;97893.83;;;-8.07;100.00
36454;BME280;22478;51.740;-1.314;2023-03-08T07:45:10;97888.43;;;-7.25;100.00
36454;BME280;22478;51.740;-1.314;2023-03-08T07:47:38;97888.19;;;-7.75;100.00
36454;BME280;22478;51.740;-1.314;2023-03-08T07:50:05;97890.33;;;-7.33;100.00
36454;BME280;22478;51.740;-1.314;2023-03-08T07:52:33;97896.88;;;-6.91;100.00
36454;BME280;22478;51.740;-1.314;2023-03-08T07:55:00;97885.44;;;-7.22;100.00
36454;BME280;22478;51.740;-1.314;2023-03-08T07:57:28;97877.03;;;-8.30;100.00
36454;BME280;22478;51.740;-1.314;2023-03-08T07:59:54;97877.84;;;-7.35;100.00
36454;BME280;22478;51.740;-1.314;2023-03-08T08:02:22;97885.57;;;-8.05;100.00
36454;BME280;22478;51.740;-1.314;2023-03-08T08:04:49;97885.86;;;-7.72;100.00
36454;BME280;22478;51.740;-1.314;2023-03-08T08:07:16;97894.70;;;-7.78;100.00
36454;BME280;22478;51.740;-1.314;2023-03-08T08:09:43;97889.98;;;-7.13;100.00
36454;BME280;22478;51.740;-1.314;2023-03-08T08:12:11;97893.86;;;-7.07;100.00
36454;BME280;22478;51.740;-1.314;2023-03-08T08:16:41;97899.41;;;-9.06;100.00
36454;BME280;22478;51.740;-1.314;2023-03-08T08:19:09;97900.50;;;-7.15;100.00
36454;BME280;22478;51.740;-1.314;2023-03-08T08:21:37;97899.84;;;-7.90;100.00
36454;BME280;22478;51.740;-1.314;2023-03-08T08:24:05;97911.58;;;-8.06;100.00
36454;BME280;22478;51.740;-1.314;2023-03-08T08:26:32;97908.89;;;-6.02;100.00
36454;BME280;22478;51.740;-1.314;2023-03-08T08:29:00;97902.73;;;-6.12;100.00
36454;BME280;22478;51.740;-1.314;2023-03-08T08:31:28;97890.33;;;-7.28;100.00
36454;BME280;22478;51.740;-1.314;2023-03-08T08:33:55;97885.27;;;-6.98;100.00
36454;BME280;22478;51.740;-1.314;2023-03-08T08:36:23;97878.85;;;-7.10;100.00
36454;BME280;22478;51.740;-1.314;2023-03-08T08:38:50;97887.20;;;-7.53;100.00
36454;BME280;22478;51.740;-1.314;2023-03-08T08:41:19;97891.61;;;-8.04;100.00
36454;BME280;22478;51.740;-1.314;2023-03-08T08:43:47;97894.59;;;-7.97;100.00
36454;BME280;22478;51.740;-1.314;2023-03-08T08:46:15;97886.41;;;-5.44;100.00
36454;BME280;22478;51.740;-1.314;2023-03-08T08:48:42;97885.20;;;-8.28;100.00
36454;BME280;22478;51.740;-1.314;2023-03-08T08:51:11;97894.18;;;-7.87;100.00
36454;BME280;22478;51.740;-1.314;2023-03-08T08:53:39;97901.44;;;-7.41;100.00
36454;BME280;22478;51.740;-1.314;2023-03-08T08:56:12;97900.93;;;-7.15;100.00
36454;BME280;22478;51.740;-1.314;2023-03-08T08:58:40;97895.37;;;-7.52;100.00
36454;BME280;22478;51.740;-1.314;2023-03-08T09:01:17;97894.20;;;-8.17;100.00
36454;BME280;22478;51.740;-1.314;2023-03-08T09:03:46;97881.59;;;-7.88;100.00
36454;BME280;22478;51.740;-1.314;2023-03-08T09:06:14;97891.56;;;-6.55;100.00
36454;BME280;22478;51.740;-1.314;2023-03-08T09:08:41;97893.77;;;-7.83;100.00
36454;BME280;22478;51.740;-1.314;2023-03-08T09:11:09;97883.51;;;-9.06;100.00
36454;BME280;22478;51.740;-1.314;2023-03-08T09:13:37;97875.22;;;-8.27;100.00
36454;BME280;22478;51.740;-1.314;2023-03-08T09:16:04;97873.18;;;-8.15;100.00
36454;BME280;22478;51.740;-1.314;2023-03-08T09:18:32;97886.11;;;-7.91;100.00
36454;BME280;22478;51.740;-1.314;2023-03-08T09:21:00;97886.29;;;-7.29;100.00
36454;BME280;22478;51.740;-1.314;2023-03-08T09:23:27;97884.84;;;-7.56;100.00
36454;BME280;22478;51.740;-1.314;2023-03-08T09:25:56;97884.65;;;-7.24;100.00
36454;BME280;22478;51.740;-1.314;2023-03-08T09:28:23;97888.28;;;-8.31;100.00
36454;BME280;22478;51.740;-1.314;2023-03-08T09:30:50;97889.87;;;-7.42;100.00
36454;BME280;22478;51.740;-1.314;2023-03-08T09:33:17;97878.42;;;-7.93;100.00
36454;BME280;22478;51.740;-1.314;2023-03-08T09:35:54;97869.56;;;-8.18;100.00
36454;BME280;22478;51.740;-1.314;2023-03-08T09:38:21;97869.07;;;-8.17;100.00
36454;BME280;22478;51.740;-1.314;2023-03-08T09:40:57;97874.45;;;-7.65;100.00
36454;BME280;22478;51.740;-1.314;2023-03-08T09:43:36;97875.77;;;-8.51;100.00
36454;BME280;22478;51.740;-1.314;2023-03-08T09:46:12;97870.56;;;-6.86;100.00
36454;BME280;22478;51.740;-1.314;2023-03-08T09:48:41;97874.72;;;-7.63;100.00
36454;BME280;22478;51.740;-1.314;2023-03-08T09:51:10;97878.01;;;-7.30;100.00
36454;BME280;22478;51.740;-1.314;2023-03-08T09:53:43;97873.00;;;-6.67;100.00
36454;BME280;22478;51.740;-1.314;2023-03-08T09:56:19;97865.30;;;-7.14;100.00
36454;BME280;22478;51.740;-1.314;2023-03-08T09:58:49;97854.74;;;-6.32;100.00
36454;BME280;22478;51.740;-1.314;2023-03-08T10:01:26;97856.85;;;-6.75;100.00
36454;BME280;22478;51.740;-1.314;2023-03-08T10:04:09;97864.04;;;-8.04;100.00
36454;BME280;22478;51.740;-1.314;2023-03-08T10:06:45;97863.88;;;-7.18;100.00
36454;BME280;22478;51.740;-1.314;2023-03-08T10:09:23;97865.49;;;-7.31;100.00
36454;BME280;22478;51.740;-1.314;2023-03-08T10:11:56;97869.35;;;-7.83;100.00
36454;BME280;22478;51.740;-1.314;2023-03-08T10:14:30;97871.45;;;-7.29;100.00
36454;BME280;22478;51.740;-1.314;2023-03-08T10:17:01;97876.43;;;-7.09;100.00
36454;BME280;22478;51.740;-1.314;2023-03-08T10:19:34;97871.98;;;-7.67;100.00
36454;BME280;22478;51.740;-1.314;2023-03-08T10:22:08;97874.12;;;-6.94;100.00
36454;BME280;22478;51.740;-1.314;2023-03-08T10:24:44;97880.21;;;-8.34;100.00
36454;BME280;22478;51.740;-1.314;2023-03-08T10:27:18;97877.06;;;-6.67;100.00
36454;BME280;22478;51.740;-1.314;2023-03-08T10:29:48;97872.40;;;-7.72;100.00
36454;BME280;22478;51.740;-1.314;2023-03-08T10:32:16;97873.09;;;-7.80;100.00
36454;BME280;22478;51.740;-1.314;2023-03-08T10:34:44;97872.14;;;-6.74;100.00
36454;BME280;22478;51.740;-1.314;2023-03-08T10:37:11;97865.48;;;-7.21;100.00
36454;BME280;22478;51.740;-1.314;2023-03-08T10:39:47;97860.33;;;-7.63;100.00
36454;BME280;22478;51.740;-1.314;2023-03-08T10:42:16;97863.53;;;-7.81;100.00
36454;BME280;22478;51.740;-1.314;2023-03-08T10:44:46;97859.44;;;-7.24;100.00
36454;BME280;22478;51.740;-1.314;2023-03-08T10:47:20;97858.95;;;-7.25;100.00
36454;BME280;22478;51.740;-1.314;2023-03-08T10:49:48;97860.65;;;-8.11;100.00
36454;BME280;22478;51.740;-1.314;2023-03-08T10:52:22;97863.14;;;-7.34;100.00
36454;BME280;22478;51.740;-1.314;2023-03-08T10:55:00;97864.39;;;-6.28;100.00
36454;BME280;22478;51.740;-1.314;2023-03-08T10:57:28;97871.24;;;-6.60;100.00
36454;BME280;22478;51.740;-1.314;2023-03-08T11:00:01;97871.39;;;-7.70;100.00
36454;BME280;22478;51.740;-1.314;2023-03-08T11:02:28;97863.65;;;-7.48;100.00
36454;BME280;22478;51.740;-1.314;2023-03-08T11:04:57;97855.47;;;-6.53;100.00
36454;BME280;22478;51.740;-1.314;2023-03-08T11:07:28;97850.43;;;-7.85;100.00
36454;BME280;22478;51.740;-1.314;2023-03-08T11:10:14;97847.86;;;-7.20;100.00
36454;BME280;22478;51.740;-1.314;2023-03-08T11:12:42;97856.06;;;-7.31;100.00
36454;BME280;22478;51.740;-1.314;2023-03-08T11:15:13;97862.15;;;-7.03;100.00
36454;BME280;22478;51.740;-1.314;2023-03-08T11:17:46;97867.07;;;-7.23;100.00
36454;BME280;22478;51.740;-1.314;2023-03-08T11:20:23;97867.11;;;-7.54;100.00
36454;BME280;22478;51.740;-1.314;2023-03-08T11:23:00;97861.65;;;-6.24;100.00
36454;BME280;22478;51.740;-1.314;2023-03-08T11:25:35;97874.92;;;-7.00;100.00
36454;BME280;22478;51.740;-1.314;2023-03-08T11:28:23;97878.01;;;-6.75;100.00
36454;BME280;22478;51.740;-1.314;2023-03-08T11:31:05;97876.39;;;-7.58;100.00
36454;BME280;22478;51.740;-1.314;2023-03-08T11:33:49;97876.87;;;-7.05;100.00
36454;BME280;22478;51.740;-1.314;2023-03-08T11:36:23;97872.87;;;-7.55;100.00
36454;BME280;22478;51.740;-1.314;2023-03-08T11:38:56;97869.39;;;-7.57;100.00
36454;BME280;22478;51.740;-1.314;2023-03-08T11:41:30;97860.69;;;-7.31;100.00
36454;BME280;22478;51.740;-1.314;2023-03-08T11:44:12;97861.28;;;-7.67;100.00
36454;BME280;22478;51.740;-1.314;2023-03-08T11:47:04;97870.87;;;-6.93;100.00
36454;BME280;22478;51.740;-1.314;2023-03-08T11:49:49;97868.72;;;-7.50;100.00
36454;BME280;22478;51.740;-1.314;2023-03-08T11:52:30;97877.35;;;-7.14;100.00
36454;BME280;22478;51.740;-1.314;2023-03-08T11:55:17;97870.37;;;-7.51;100.00
36454;BME280;22478;51.740;-1.314;2023-03-08T11:57:52;97869.34;;;-6.41;100.00
36454;BME280;22478;51.740;-1.314;2023-03-08T12:00:25;97874.28;;;-6.76;100.00
36454;BME280;22478;51.740;-1.314;2023-03-08T12:02:57;97871.89;;;-7.70;100.00
36454;BME280;22478;51.740;-1.314;2023-03-08T12:05:27;97877.63;;;-7.50;100.00
36454;BME280;22478;51.740;-1.314;2023-03-08T12:07:58;97875.64;;;-7.10;100.00
36454;BME280;22478;51.740;-1.314;2023-03-08T12:10:32;97873.24;;;-7.10;100.00
36454;BME280;22478;51.740;-1.314;2023-03-08T12:13:11;97872.24;;;-7.91;100.00
36454;BME280;22478;51.740;-1.314;2023-03-08T12:15:46;97865.42;;;-6.98;100.00
36454;BME280;22478;51.740;-1.314;2023-03-08T12:18:17;97858.93;;;-7.60;100.00
36454;BME280;22478;51.740;-1.314;2023-03-08T12:20:47;97849.34;;;-8.11;100.00
36454;BME280;22478;51.740;-1.314;2023-03-08T12:23:22;97842.71;;;-7.68;100.00
36454;BME280;22478;51.740;-1.314;2023-03-08T12:25:55;97846.67;;;-6.94;100.00
36454;BME280;22478;51.740;-1.314;2023-03-08T12:28:29;97847.51;;;-7.57;100.00
36454;BME280;22478;51.740;-1.314;2023-03-08T12:31:06;97849.12;;;-7.72;100.00
36454;BME280;22478;51.740;-1.314;2023-03-08T12:33:35;97848.26;;;-7.80;100.00
36454;BME280;22478;51.740;-1.314;2023-03-08T12:36:04;97847.50;;;-7.29;100.00
36454;BME280;22478;51.740;-1.314;2023-03-08T12:38:35;97848.61;;;-7.17;100.00
36454;BME280;22478;51.740;-1.314;2023-03-08T12:41:05;97845.47;;;-7.61;100.00
36454;BME280;22478;51.740;-1.314;2023-03-08T12:43:34;97845.29;;;-8.12;100.00
36454;BME280;22478;51.740;-1.314;2023-03-08T12:46:05;97846.59;;;-7.82;100.00
36454;BME280;22478;51.740;-1.314;2023-03-08T12:48:33;97842.80;;;-7.11;100.00
36454;BME280;22478;51.740;-1.314;2023-03-08T12:51:05;97842.42;;;-7.95;100.00
36454;BME280;22478;51.740;-1.314;2023-03-08T12:53:37;97834.31;;;-6.69;100.00